Time;durP1;ratioP1;P1;durP2;ratioP2;P2;SDS_P1;SDS_P2;PMS_P1;PMS_P2;Temp;Humidity;BMP_temperature;BMP_pressure;BME280_temperature;BME280_humidity;BME280_pressure;Samples;Min_cycle;Max_cycle;Signal;HPM_P1;HPM_P2
2022/04/12 00:00:59;;;;;;;;;;;15.60;99.90;;;;;;4996201;28;19918;-85
2022/04/12 00:03:25;;;;;;;;;;;15.50;99.90;;;;;;4999071;28;19917;-85
2022/04/12 00:05:51;;;;;;;;;;;15.50;99.90;;;;;;4994471;28;20302;-85
2022/04/12 00:08:17;;;;;;;;;;;15.50;99.90;;;;;;4995564;28;19976;-85
2022/04/12 00:10:42;;;;;;;;;;;15.50;99.90;;;;;;4994852;28;19917;-85
2022/04/12 00:13:08;;;;;;;;;;;15.50;99.90;;;;;;4998456;28;19914;-85
2022/04/12 00:15:33;;;;;;;;;;;15.40;99.90;;;;;;4997769;28;20190;-85
2022/04/12 00:20:43;;;;;;;;;;;15.30;99.90;;;;;;4996951;28;19975;-85
2022/04/12 00:23:11;;;;;;;;;;;15.30;99.90;;;;;;4999520;28;19914;-85
2022/04/12 00:25:36;;;;;;;;;;;15.20;99.90;;;;;;4995202;28;19918;-85
2022/04/12 00:28:02;;;;;;;;;;;15.30;99.90;;;;;;4998884;28;20248;-85
2022/04/12 00:30:28;;;;;;;;;;;15.20;99.90;;;;;;4998777;28;19906;-85
2022/04/12 00:32:54;;;;;;;;;;;15.20;99.90;;;;;;4993579;28;19917;-85
2022/04/12 00:35:21;;;;;;;;;;;15.20;99.90;;;;;;4992336;28;20378;-85
2022/04/12 00:37:47;;;;;;;;;;;15.20;99.90;;;;;;4995224;28;19920;-85
2022/04/12 00:40:13;;;;;;;;;;;15.20;99.90;;;;;;4994810;28;19910;-85
2022/04/12 00:42:39;;;;;;;;;;;15.20;99.90;;;;;;4997259;28;20078;-85
2022/04/12 00:45:05;;;;;;;;;;;15.10;99.90;;;;;;4995471;28;19949;-85
2022/04/12 00:47:31;;;;;;;;;;;15.20;99.90;;;;;;4994781;28;20263;-85
2022/04/12 00:49:57;;;;;;;;;;;15.20;99.90;;;;;;4995149;28;19929;-85
2022/04/12 00:52:22;;;;;;;;;;;15.20;99.90;;;;;;4992155;28;20421;-85
2022/04/12 00:54:49;;;;;;;;;;;15.20;99.90;;;;;;4992149;28;19968;-85
2022/04/12 00:57:15;;;;;;;;;;;15.20;99.90;;;;;;4996116;28;19941;-85
2022/04/12 00:59:43;;;;;;;;;;;15.10;99.90;;;;;;5000782;28;19906;-85
2022/04/12 01:02:09;;;;;;;;;;;14.90;99.90;;;;;;4995735;28;19910;-85
2022/04/12 01:04:34;;;;;;;;;;;14.70;99.90;;;;;;4990789;28;19925;-84
2022/04/12 01:07:00;;;;;;;;;;;14.60;99.90;;;;;;4997685;28;19912;-84
2022/04/12 01:09:26;;;;;;;;;;;14.60;99.90;;;;;;4996789;28;19961;-84
2022/04/12 01:11:53;;;;;;;;;;;14.60;99.90;;;;;;4990219;28;19984;-84
2022/04/12 01:14:18;;;;;;;;;;;14.60;99.90;;;;;;4994938;28;19914;-84
2022/04/12 01:16:44;;;;;;;;;;;14.50;99.90;;;;;;4993386;28;19964;-84
2022/04/12 01:19:09;;;;;;;;;;;14.50;99.90;;;;;;4993622;28;19945;-85
2022/04/12 01:21:42;;;;;;;;;;;14.50;99.90;;;;;;4992024;28;19916;-84
2022/04/12 01:24:08;;;;;;;;;;;14.50;99.90;;;;;;4991105;28;20037;-84
2022/04/12 01:26:33;;;;;;;;;;;14.50;99.90;;;;;;4995280;28;20049;-85
2022/04/12 01:28:59;;;;;;;;;;;14.50;99.90;;;;;;4999618;28;19906;-85
2022/04/12 01:31:25;;;;;;;;;;;14.50;99.90;;;;;;4995185;28;19960;-85
2022/04/12 01:33:51;;;;;;;;;;;14.50;99.90;;;;;;4995012;28;20116;-85
2022/04/12 01:36:16;;;;;;;;;;;14.50;99.90;;;;;;4996575;28;19909;-85
2022/04/12 01:38:42;;;;;;;;;;;14.50;99.90;;;;;;4994303;28;19910;-85
2022/04/12 01:41:08;;;;;;;;;;;14.40;99.90;;;;;;4991449;28;19957;-85
2022/04/12 01:43:33;;;;;;;;;;;14.40;99.90;;;;;;4994204;28;19920;-85
2022/04/12 01:45:59;;;;;;;;;;;14.40;99.90;;;;;;4991528;28;19925;-85
2022/04/12 01:48:25;;;;;;;;;;;14.30;99.90;;;;;;4994754;28;19910;-85
2022/04/12 01:50:50;;;;;;;;;;;14.30;99.90;;;;;;4988542;28;20182;-84
2022/04/12 01:53:16;;;;;;;;;;;14.30;99.90;;;;;;4997360;28;19910;-85
2022/04/12 01:55:41;;;;;;;;;;;14.40;99.90;;;;;;4992752;28;19910;-85
2022/04/12 01:58:07;;;;;;;;;;;14.40;99.90;;;;;;4999494;28;20071;-85
2022/04/12 02:00:34;;;;;;;;;;;14.30;99.90;;;;;;4999646;28;20220;-85
2022/04/12 02:02:59;;;;;;;;;;;14.40;99.90;;;;;;4997084;28;20322;-85
2022/04/12 02:05:25;;;;;;;;;;;14.30;99.90;;;;;;4994369;28;19922;-85
2022/04/12 02:07:50;;;;;;;;;;;14.30;99.90;;;;;;4995515;28;19917;-85
2022/04/12 02:10:18;;;;;;;;;;;14.30;99.90;;;;;;4996205;28;19961;-85
2022/04/12 02:12:43;;;;;;;;;;;14.30;99.90;;;;;;4996339;28;20186;-85
2022/04/12 02:15:09;;;;;;;;;;;14.30;99.90;;;;;;4994991;28;19917;-85
2022/04/12 02:17:34;;;;;;;;;;;14.30;99.90;;;;;;4996046;28;19910;-85
2022/04/12 02:20:00;;;;;;;;;;;14.30;99.90;;;;;;4993452;28;19910;-85
2022/04/12 02:22:25;;;;;;;;;;;14.30;99.90;;;;;;5001184;28;19913;-84
2022/04/12 02:24:51;;;;;;;;;;;14.30;99.90;;;;;;4998697;28;20133;-84
2022/04/12 02:27:16;;;;;;;;;;;14.20;99.90;;;;;;5000829;28;20109;-85
2022/04/12 02:29:42;;;;;;;;;;;14.20;99.90;;;;;;4999520;28;19910;-84
2022/04/12 02:32:07;;;;;;;;;;;14.20;99.90;;;;;;4999477;28;19998;-85
2022/04/12 02:34:33;;;;;;;;;;;14.10;99.90;;;;;;4999269;28;19910;-85
2022/04/12 02:36:59;;;;;;;;;;;14.10;99.90;;;;;;5001032;28;19921;-85
2022/04/12 02:39:24;;;;;;;;;;;14.10;99.90;;;;;;4998713;28;19949;-85
2022/04/12 02:41:50;;;;;;;;;;;14.10;99.90;;;;;;5002955;28;19910;-84
2022/04/12 02:44:16;;;;;;;;;;;14.10;99.90;;;;;;4998246;28;19909;-85
2022/04/12 02:46:41;;;;;;;;;;;14.10;99.90;;;;;;5004525;28;19918;-85
2022/04/12 02:49:07;;;;;;;;;;;14.10;99.90;;;;;;4999445;28;20283;-85
2022/04/12 02:51:33;;;;;;;;;;;14.10;99.90;;;;;;5000323;28;20012;-85
2022/04/12 02:53:58;;;;;;;;;;;14.10;99.90;;;;;;4995570;28;19906;-85
2022/04/12 02:56:24;;;;;;;;;;;14.10;99.90;;;;;;4996829;28;20012;-85
2022/04/12 02:58:49;;;;;;;;;;;14.10;99.90;;;;;;4998134;28;20438;-84
2022/04/12 03:01:15;;;;;;;;;;;14.10;99.90;;;;;;5003490;28;19913;-85
2022/04/12 03:03:40;;;;;;;;;;;14.00;99.90;;;;;;4998681;28;19910;-85
2022/04/12 03:06:06;;;;;;;;;;;14.00;99.90;;;;;;4998384;28;19963;-85
2022/04/12 03:08:31;;;;;;;;;;;13.90;99.90;;;;;;4997949;28;19918;-84
2022/04/12 03:10:57;;;;;;;;;;;14.00;99.90;;;;;;5003949;28;20153;-85
2022/04/12 03:13:23;;;;;;;;;;;13.90;99.90;;;;;;4999624;28;19909;-85
2022/04/12 03:15:48;;;;;;;;;;;13.90;99.90;;;;;;4999097;28;19914;-85
2022/04/12 03:18:16;;;;;;;;;;;13.90;99.90;;;;;;4998731;28;19905;-85
2022/04/12 03:20:41;;;;;;;;;;;13.80;99.90;;;;;;4998287;28;19941;-85
2022/04/12 03:23:07;;;;;;;;;;;13.80;99.90;;;;;;5002872;28;19906;-85
2022/04/12 03:25:32;;;;;;;;;;;13.70;99.90;;;;;;4996667;28;20102;-85
2022/04/12 03:27:58;;;;;;;;;;;13.70;99.90;;;;;;5000040;28;20378;-85
2022/04/12 03:30:23;;;;;;;;;;;13.70;99.90;;;;;;5001794;28;19917;-85
2022/04/12 03:32:49;;;;;;;;;;;13.70;99.90;;;;;;5000119;28;19917;-85
2022/04/12 03:35:15;;;;;;;;;;;13.70;99.90;;;;;;5001863;28;19913;-85
2022/04/12 03:37:40;;;;;;;;;;;13.70;99.90;;;;;;4996679;28;20034;-85
2022/04/12 03:40:06;;;;;;;;;;;13.70;99.90;;;;;;4997398;28;20008;-85
2022/04/12 03:42:32;;;;;;;;;;;13.60;99.90;;;;;;4997684;28;20266;-84
2022/04/12 03:44:57;;;;;;;;;;;13.60;99.90;;;;;;4996495;28;19956;-85
2022/04/12 03:47:23;;;;;;;;;;;13.60;99.90;;;;;;4994225;28;20081;-85
2022/04/12 03:49:48;;;;;;;;;;;13.50;99.90;;;;;;4997328;28;20166;-85
2022/04/12 03:52:15;;;;;;;;;;;13.50;99.90;;;;;;4994477;28;19917;-85
2022/04/12 03:54:41;;;;;;;;;;;13.50;99.90;;;;;;4996863;28;20182;-85
2022/04/12 03:57:06;;;;;;;;;;;13.50;99.90;;;;;;4998310;28;19917;-85
2022/04/12 03:59:32;;;;;;;;;;;13.50;99.90;;;;;;4998144;28;19909;-85
2022/04/12 04:01:57;;;;;;;;;;;13.40;99.90;;;;;;4997322;28;20250;-85
2022/04/12 04:04:23;;;;;;;;;;;13.40;99.90;;;;;;4995006;28;19929;-85
2022/04/12 04:06:48;;;;;;;;;;;13.40;99.90;;;;;;4998258;28;20080;-85
2022/04/12 04:09:15;;;;;;;;;;;13.50;99.90;;;;;;4997490;28;20198;-85
2022/04/12 04:11:40;;;;;;;;;;;13.50;99.90;;;;;;4996984;28;19905;-85
2022/04/12 04:14:06;;;;;;;;;;;13.60;99.90;;;;;;5001410;28;19993;-84
2022/04/12 04:16:32;;;;;;;;;;;13.60;99.90;;;;;;5000931;28;19906;-85
2022/04/12 04:18:58;;;;;;;;;;;13.60;99.90;;;;;;4995243;28;19949;-85
2022/04/12 04:21:23;;;;;;;;;;;13.60;99.90;;;;;;4997204;28;19909;-85
2022/04/12 04:23:49;;;;;;;;;;;13.60;99.90;;;;;;4998700;28;19910;-85
2022/04/12 04:26:15;;;;;;;;;;;13.60;99.90;;;;;;4995648;28;19921;-85
2022/04/12 04:28:42;;;;;;;;;;;13.60;99.90;;;;;;4991267;28;19913;-85
2022/04/12 04:31:08;;;;;;;;;;;13.60;99.90;;;;;;4999127;28;20213;-85
2022/04/12 04:33:33;;;;;;;;;;;13.60;99.90;;;;;;4995710;28;19912;-85
2022/04/12 04:35:59;;;;;;;;;;;13.60;99.90;;;;;;5001319;28;19906;-85
2022/04/12 04:38:24;;;;;;;;;;;13.60;99.90;;;;;;4996194;28;19905;-84
2022/04/12 04:40:50;;;;;;;;;;;13.60;99.90;;;;;;4992023;28;19964;-85
2022/04/12 04:43:16;;;;;;;;;;;13.70;99.90;;;;;;4996758;28;19965;-85
2022/04/12 04:45:43;;;;;;;;;;;13.60;99.90;;;;;;4996800;28;19929;-85
2022/04/12 04:48:09;;;;;;;;;;;13.60;99.90;;;;;;4996529;28;19977;-85
2022/04/12 04:50:35;;;;;;;;;;;13.50;99.90;;;;;;4994501;28;20433;-85
2022/04/12 04:53:02;;;;;;;;;;;13.60;99.90;;;;;;5000088;28;19937;-85
2022/04/12 04:55:28;;;;;;;;;;;13.60;99.90;;;;;;5001487;28;19913;-85
2022/04/12 04:57:55;;;;;;;;;;;13.60;99.90;;;;;;4995845;28;20011;-85
2022/04/12 05:00:22;;;;;;;;;;;13.60;99.90;;;;;;4998660;28;19906;-85
2022/04/12 05:02:54;;;;;;;;;;;13.50;99.90;;;;;;4997291;28;19910;-85
2022/04/12 05:05:20;;;;;;;;;;;13.50;99.90;;;;;;5000345;28;20358;-85
2022/04/12 05:07:46;;;;;;;;;;;13.50;99.90;;;;;;4995728;28;20291;-85
2022/04/12 05:10:13;;;;;;;;;;;13.50;99.90;;;;;;4994987;28;19914;-85
2022/04/12 05:12:39;;;;;;;;;;;13.40;99.90;;;;;;4999764;28;19913;-85
2022/04/12 05:15:05;;;;;;;;;;;13.50;99.90;;;;;;4998155;28;19925;-85
2022/04/12 05:17:30;;;;;;;;;;;13.40;99.90;;;;;;4995212;28;19957;-85
2022/04/12 05:19:59;;;;;;;;;;;13.40;99.90;;;;;;4997933;28;19952;-85
2022/04/12 05:22:25;;;;;;;;;;;13.40;99.90;;;;;;5001516;28;19976;-85
2022/04/12 05:24:50;;;;;;;;;;;13.40;99.90;;;;;;4999447;28;19921;-85
2022/04/12 05:27:16;;;;;;;;;;;13.50;99.90;;;;;;4997015;28;19910;-85
2022/04/12 05:29:42;;;;;;;;;;;13.50;99.90;;;;;;4996198;28;19914;-84
2022/04/12 05:32:09;;;;;;;;;;;13.60;99.90;;;;;;4994059;28;19910;-84
2022/04/12 05:34:42;;;;;;;;;;;13.50;99.90;;;;;;4990971;28;19913;-85
2022/04/12 05:37:08;;;;;;;;;;;13.60;99.90;;;;;;4989544;28;19909;-85
2022/04/12 05:39:34;;;;;;;;;;;13.60;99.90;;;;;;4990518;28;19918;-85
2022/04/12 05:42:00;;;;;;;;;;;13.60;99.90;;;;;;4987926;28;19909;-85
2022/04/12 05:44:26;;;;;;;;;;;13.60;99.90;;;;;;4990001;28;19921;-85
2022/04/12 05:46:52;;;;;;;;;;;13.60;99.90;;;;;;4989899;28;20357;-84
2022/04/12 05:49:17;;;;;;;;;;;13.60;99.90;;;;;;4990397;28;19910;-85
2022/04/12 05:51:43;;;;;;;;;;;13.60;99.90;;;;;;4989143;28;19909;-84
2022/04/12 05:54:08;;;;;;;;;;;13.60;99.90;;;;;;4997437;28;19906;-84
2022/04/12 05:56:34;;;;;;;;;;;13.60;99.90;;;;;;5002295;28;19913;-85
2022/04/12 05:58:59;;;;;;;;;;;13.70;99.90;;;;;;5002334;28;19910;-85
2022/04/12 06:01:25;;;;;;;;;;;13.70;99.90;;;;;;5001251;28;19905;-84
2022/04/12 06:03:50;;;;;;;;;;;13.70;99.90;;;;;;5001619;28;20125;-85
2022/04/12 06:06:16;;;;;;;;;;;13.80;99.90;;;;;;5001512;28;19918;-85
2022/04/12 06:08:41;;;;;;;;;;;13.80;99.90;;;;;;5001446;28;19917;-85
2022/04/12 06:11:07;;;;;;;;;;;13.80;99.90;;;;;;5001398;28;20122;-85
2022/04/12 06:13:33;;;;;;;;;;;13.90;99.90;;;;;;5000326;28;20170;-85
2022/04/12 06:15:58;;;;;;;;;;;13.90;99.90;;;;;;5000883;28;19912;-85
2022/04/12 06:18:24;;;;;;;;;;;14.00;99.90;;;;;;5001945;28;19913;-84
2022/04/12 06:20:49;;;;;;;;;;;14.00;99.90;;;;;;4999602;28;19921;-85
2022/04/12 06:23:15;;;;;;;;;;;14.00;99.90;;;;;;5001572;28;19912;-85
2022/04/12 06:25:41;;;;;;;;;;;14.10;99.90;;;;;;4995181;28;19925;-84
2022/04/12 06:28:07;;;;;;;;;;;14.10;99.90;;;;;;4991365;28;19909;-84
2022/04/12 06:30:33;;;;;;;;;;;14.10;99.90;;;;;;4990268;28;19910;-85
2022/04/12 06:32:59;;;;;;;;;;;14.10;99.90;;;;;;4989865;28;19914;-85
2022/04/12 06:35:24;;;;;;;;;;;14.00;99.90;;;;;;4990507;28;19910;-85
2022/04/12 06:37:56;;;;;;;;;;;14.10;99.90;;;;;;4989136;28;19933;-85
2022/04/12 06:40:22;;;;;;;;;;;14.10;99.90;;;;;;4990768;28;20009;-85
2022/04/12 06:42:48;;;;;;;;;;;14.20;99.90;;;;;;4990499;28;19910;-84
2022/04/12 06:45:14;;;;;;;;;;;14.20;99.90;;;;;;4990182;28;19925;-84
2022/04/12 06:47:40;;;;;;;;;;;14.10;99.90;;;;;;4988834;28;19910;-85
2022/04/12 06:50:06;;;;;;;;;;;14.20;99.90;;;;;;4988872;28;19910;-84
2022/04/12 06:52:32;;;;;;;;;;;14.10;99.90;;;;;;4982589;28;19910;-85
2022/04/12 06:54:58;;;;;;;;;;;14.20;99.90;;;;;;4989240;28;19933;-84
2022/04/12 06:57:24;;;;;;;;;;;14.20;99.90;;;;;;4989032;28;19910;-85
2022/04/12 06:59:51;;;;;;;;;;;14.20;99.90;;;;;;4990212;28;19917;-84
2022/04/12 07:02:17;;;;;;;;;;;14.30;99.90;;;;;;4990298;28;19985;-85
2022/04/12 07:04:42;;;;;;;;;;;14.40;99.90;;;;;;4988949;28;20037;-84
2022/04/12 07:07:09;;;;;;;;;;;14.30;99.90;;;;;;4988919;28;19914;-85
2022/04/12 07:09:34;;;;;;;;;;;14.40;99.90;;;;;;4989949;28;19929;-85
2022/04/12 07:12:01;;;;;;;;;;;14.50;99.90;;;;;;4988685;28;19910;-84
2022/04/12 07:14:29;;;;;;;;;;;14.50;99.90;;;;;;4990768;28;19910;-85
2022/04/12 07:16:55;;;;;;;;;;;14.50;99.90;;;;;;4993387;28;19910;-85
2022/04/12 07:19:20;;;;;;;;;;;14.60;99.90;;;;;;4993628;28;20018;-85
2022/04/12 07:21:47;;;;;;;;;;;14.60;99.90;;;;;;4993767;28;20004;-85
2022/04/12 07:24:12;;;;;;;;;;;14.70;99.90;;;;;;4993573;28;19918;-85
2022/04/12 07:26:38;;;;;;;;;;;14.70;99.90;;;;;;4993380;28;19922;-84
2022/04/12 07:29:03;;;;;;;;;;;14.60;99.90;;;;;;4992119;28;20402;-84
2022/04/12 07:31:29;;;;;;;;;;;14.40;99.90;;;;;;4993089;28;19910;-84
2022/04/12 07:33:55;;;;;;;;;;;14.20;99.90;;;;;;4993215;28;19910;-84
2022/04/12 07:36:20;;;;;;;;;;;14.20;99.90;;;;;;4991950;28;19914;-84
2022/04/12 07:38:48;;;;;;;;;;;14.20;99.90;;;;;;4992264;28;20013;-84
2022/04/12 07:41:14;;;;;;;;;;;14.20;99.90;;;;;;4993411;28;20497;-84
2022/04/12 07:43:39;;;;;;;;;;;14.20;99.90;;;;;;4993311;28;19926;-84
2022/04/12 07:46:05;;;;;;;;;;;14.10;99.90;;;;;;4992893;28;19925;-85
2022/04/12 07:48:31;;;;;;;;;;;14.20;99.90;;;;;;4991725;28;19940;-84
2022/04/12 07:50:57;;;;;;;;;;;14.10;99.90;;;;;;4991853;28;19914;-84
2022/04/12 07:53:23;;;;;;;;;;;14.00;99.90;;;;;;4991542;28;19909;-85
2022/04/12 07:55:48;;;;;;;;;;;14.00;99.90;;;;;;4991501;28;20279;-84
2022/04/12 07:58:17;;;;;;;;;;;14.00;99.90;;;;;;4992822;28;19921;-85
2022/04/12 08:00:43;;;;;;;;;;;14.00;99.90;;;;;;4992708;28;19909;-85
2022/04/12 08:03:08;;;;;;;;;;;14.00;99.90;;;;;;4991676;28;20012;-84
2022/04/12 08:05:34;;;;;;;;;;;14.00;99.90;;;;;;4991713;28;19945;-84
2022/04/12 08:08:04;;;;;;;;;;;14.00;99.90;;;;;;4991250;28;19921;-84
2022/04/12 08:10:30;;;;;;;;;;;13.90;99.90;;;;;;4992690;28;20031;-84
2022/04/12 08:12:56;;;;;;;;;;;13.80;99.90;;;;;;4992531;28;20359;-85
2022/04/12 08:15:26;;;;;;;;;;;13.80;99.90;;;;;;4992478;28;19992;-84
2022/04/12 08:17:52;;;;;;;;;;;13.80;99.90;;;;;;4992458;28;19917;-85
2022/04/12 08:20:18;;;;;;;;;;;13.90;99.90;;;;;;4992985;28;20283;-84
2022/04/12 08:22:43;;;;;;;;;;;14.00;99.90;;;;;;4992893;28;19916;-84
2022/04/12 08:25:10;;;;;;;;;;;14.00;99.90;;;;;;4992375;28;19962;-85
2022/04/12 08:27:35;;;;;;;;;;;14.10;99.90;;;;;;4991016;28;20283;-85
2022/04/12 08:30:02;;;;;;;;;;;14.10;99.90;;;;;;4992455;28;19922;-84
2022/04/12 08:32:29;;;;;;;;;;;14.10;99.90;;;;;;4991744;28;19964;-84
2022/04/12 08:34:55;;;;;;;;;;;14.20;99.90;;;;;;4992162;28;19909;-85
2022/04/12 08:37:21;;;;;;;;;;;14.30;99.90;;;;;;4992013;28;19942;-84
2022/04/12 08:39:47;;;;;;;;;;;14.40;99.90;;;;;;4990985;28;19918;-85
2022/04/12 08:42:12;;;;;;;;;;;14.30;99.90;;;;;;4991866;28;19956;-84
2022/04/12 08:44:39;;;;;;;;;;;14.40;99.90;;;;;;4990802;28;19918;-85
2022/04/12 08:47:06;;;;;;;;;;;14.50;99.90;;;;;;4990488;28;19910;-85
2022/04/12 08:49:32;;;;;;;;;;;14.50;99.90;;;;;;4991938;28;19959;-85
2022/04/12 08:51:58;;;;;;;;;;;14.40;99.90;;;;;;4991674;28;19964;-85
2022/04/12 08:54:24;;;;;;;;;;;14.40;99.90;;;;;;4990431;28;19914;-85
2022/04/12 08:56:51;;;;;;;;;;;14.40;99.90;;;;;;4991732;28;19996;-85
2022/04/12 08:59:17;;;;;;;;;;;14.30;99.90;;;;;;4991613;28;20449;-85
2022/04/12 09:01:43;;;;;;;;;;;14.30;99.90;;;;;;4990186;28;19914;-84
2022/04/12 09:04:09;;;;;;;;;;;14.50;99.90;;;;;;4992265;28;20005;-85
2022/04/12 09:06:35;;;;;;;;;;;14.40;99.90;;;;;;4991635;28;20424;-84
2022/04/12 09:09:11;;;;;;;;;;;14.40;99.90;;;;;;4991648;28;20013;-84
2022/04/12 09:11:43;;;;;;;;;;;14.40;99.90;;;;;;4990311;28;19910;-84
2022/04/12 09:14:15;;;;;;;;;;;14.40;99.90;;;;;;4991713;28;19920;-84
2022/04/12 09:16:42;;;;;;;;;;;14.60;99.90;;;;;;4989691;28;19910;-84
2022/04/12 09:19:07;;;;;;;;;;;14.80;99.90;;;;;;4991324;28;19910;-85
2022/04/12 09:21:33;;;;;;;;;;;14.80;99.90;;;;;;4990035;28;20347;-85
2022/04/12 09:24:01;;;;;;;;;;;14.80;99.90;;;;;;4990084;28;20306;-85
2022/04/12 09:26:27;;;;;;;;;;;15.00;99.90;;;;;;4991192;28;19921;-84
2022/04/12 09:28:54;;;;;;;;;;;15.20;99.90;;;;;;4991677;28;20075;-84
2022/04/12 09:31:20;;;;;;;;;;;15.20;99.90;;;;;;4990807;28;19948;-84
2022/04/12 09:33:47;;;;;;;;;;;15.10;99.90;;;;;;4989819;28;19914;-84
2022/04/12 09:36:12;;;;;;;;;;;15.10;99.90;;;;;;4991154;28;19910;-85
2022/04/12 09:38:39;;;;;;;;;;;15.10;99.90;;;;;;4990482;28;19933;-84
2022/04/12 09:41:11;;;;;;;;;;;15.10;99.90;;;;;;4990914;28;19917;-84
2022/04/12 09:43:49;;;;;;;;;;;15.20;99.90;;;;;;4991118;28;19914;-85
2022/04/12 09:46:15;;;;;;;;;;;15.20;99.90;;;;;;4990627;28;19924;-85
2022/04/12 09:48:44;;;;;;;;;;;15.00;99.90;;;;;;4990867;28;19993;-84
2022/04/12 09:51:11;;;;;;;;;;;14.90;99.90;;;;;;4990822;28;19910;-84
2022/04/12 09:53:38;;;;;;;;;;;15.00;99.90;;;;;;4990577;28;19952;-84
2022/04/12 09:56:24;;;;;;;;;;;14.90;99.90;;;;;;4991085;28;20006;-84
2022/04/12 09:58:53;;;;;;;;;;;14.90;99.90;;;;;;4990280;28;19910;-85
2022/04/12 10:01:20;;;;;;;;;;;15.00;99.90;;;;;;4990269;28;20290;-84
2022/04/12 10:03:47;;;;;;;;;;;15.00;99.90;;;;;;4990731;28;19910;-84
2022/04/12 10:06:16;;;;;;;;;;;15.00;99.90;;;;;;4990652;28;19940;-84
2022/04/12 10:08:41;;;;;;;;;;;15.00;99.90;;;;;;4990654;28;19921;-85
2022/04/12 10:11:08;;;;;;;;;;;15.00;99.90;;;;;;4989225;28;20044;-85
2022/04/12 10:13:33;;;;;;;;;;;15.00;99.90;;;;;;4990770;28;19956;-84
2022/04/12 10:15:59;;;;;;;;;;;14.90;99.90;;;;;;4990091;28;20016;-84
2022/04/12 10:18:25;;;;;;;;;;;14.90;99.90;;;;;;4990307;28;19914;-84
2022/04/12 10:20:51;;;;;;;;;;;14.90;99.90;;;;;;4990429;28;19917;-84
2022/04/12 10:23:18;;;;;;;;;;;14.80;99.90;;;;;;4990521;28;19909;-84
2022/04/12 10:25:47;;;;;;;;;;;14.80;99.90;;;;;;4990644;28;19924;-84
2022/04/12 10:28:14;;;;;;;;;;;14.80;99.90;;;;;;4990881;28;19913;-84
2022/04/12 10:30:39;;;;;;;;;;;14.90;99.90;;;;;;4990108;28;19910;-84
2022/04/12 10:33:09;;;;;;;;;;;14.90;99.90;;;;;;4990892;28;19956;-84
2022/04/12 10:35:50;;;;;;;;;;;14.90;99.90;;;;;;4990272;28;19931;-84
2022/04/12 10:38:16;;;;;;;;;;;15.00;99.90;;;;;;4990464;28;20382;-84
2022/04/12 10:40:43;;;;;;;;;;;15.00;99.90;;;;;;4990631;28;19920;-84
2022/04/12 10:43:20;;;;;;;;;;;15.00;99.90;;;;;;4989251;28;19914;-84
2022/04/12 10:45:49;;;;;;;;;;;15.00;99.90;;;;;;4988749;28;20301;-84
2022/04/12 10:48:22;;;;;;;;;;;15.00;99.90;;;;;;4990558;28;20096;-84
2022/04/12 10:51:01;;;;;;;;;;;15.10;99.90;;;;;;4992613;28;19917;-84
2022/04/12 10:53:35;;;;;;;;;;;15.00;99.90;;;;;;4993621;28;19925;-84
2022/04/12 10:56:22;;;;;;;;;;;15.00;99.90;;;;;;4994267;28;20341;-84
2022/04/12 10:58:49;;;;;;;;;;;15.10;99.90;;;;;;4994392;28;19945;-84
2022/04/12 11:01:27;;;;;;;;;;;15.20;99.90;;;;;;4992397;28;20251;-84
2022/04/12 11:03:53;;;;;;;;;;;15.30;99.90;;;;;;4993951;28;19916;-84
2022/04/12 11:06:22;;;;;;;;;;;15.30;99.90;;;;;;4993921;28;19977;-84
2022/04/12 11:08:49;;;;;;;;;;;15.40;99.90;;;;;;4993825;28;20395;-84
2022/04/12 11:11:22;;;;;;;;;;;15.60;99.90;;;;;;4993997;28;19914;-85
2022/04/12 11:13:49;;;;;;;;;;;15.60;99.90;;;;;;4992650;28;20342;-85
2022/04/12 11:16:17;;;;;;;;;;;15.80;99.90;;;;;;4993193;28;20329;-85
2022/04/12 11:18:47;;;;;;;;;;;15.80;99.90;;;;;;4993432;28;20299;-84
2022/04/12 11:21:13;;;;;;;;;;;16.00;99.90;;;;;;4992514;28;19910;-84
2022/04/12 11:23:44;;;;;;;;;;;16.10;99.90;;;;;;4993646;28;19909;-84
2022/04/12 11:26:29;;;;;;;;;;;16.10;99.90;;;;;;4992328;28;19972;-84
2022/04/12 11:28:55;;;;;;;;;;;16.00;99.90;;;;;;4993649;28;20013;-84
2022/04/12 11:31:21;;;;;;;;;;;16.00;99.90;;;;;;4993340;28;19956;-85
2022/04/12 11:33:48;;;;;;;;;;;16.20;99.90;;;;;;4993366;28;19910;-85
2022/04/12 11:36:16;;;;;;;;;;;16.30;99.90;;;;;;4991851;28;19916;-85
2022/04/12 11:38:42;;;;;;;;;;;16.30;99.90;;;;;;4993328;28;19910;-84
2022/04/12 11:41:07;;;;;;;;;;;16.40;99.90;;;;;;4993646;28;20009;-84
2022/04/12 11:43:33;;;;;;;;;;;16.50;99.90;;;;;;4993114;28;19910;-84
2022/04/12 11:45:59;;;;;;;;;;;16.70;99.90;;;;;;4992927;28;19918;-84
2022/04/12 11:48:31;;;;;;;;;;;16.90;99.90;;;;;;4993075;28;19910;-84
2022/04/12 11:50:57;;;;;;;;;;;16.90;99.90;;;;;;4993093;28;19921;-85
2022/04/12 11:53:23;;;;;;;;;;;16.80;99.90;;;;;;4991831;28;19910;-85
2022/04/12 11:55:49;;;;;;;;;;;16.90;99.90;;;;;;4993027;28;19909;-84
2022/04/12 11:58:15;;;;;;;;;;;17.20;99.90;;;;;;4992914;28;20401;-84
2022/04/12 12:00:41;;;;;;;;;;;17.30;99.90;;;;;;4992533;28;19976;-85
2022/04/12 12:03:15;;;;;;;;;;;17.50;99.90;;;;;;4993130;28;19940;-84
2022/04/12 12:05:40;;;;;;;;;;;17.60;99.90;;;;;;4993000;28;19918;-85
2022/04/12 12:08:06;;;;;;;;;;;17.50;99.90;;;;;;4992777;28;19924;-84
2022/04/12 12:10:31;;;;;;;;;;;17.40;99.90;;;;;;4992759;28;20402;-85
2022/04/12 12:12:57;;;;;;;;;;;17.30;99.90;;;;;;4992928;28;19932;-84
2022/04/12 12:15:23;;;;;;;;;;;17.30;99.90;;;;;;4992893;28;19921;-84
2022/04/12 12:17:49;;;;;;;;;;;17.30;99.90;;;;;;4992509;28;20461;-85
2022/04/12 12:20:17;;;;;;;;;;;17.10;99.90;;;;;;4992761;28;19945;-84
2022/04/12 12:22:43;;;;;;;;;;;17.00;99.90;;;;;;4992517;28;19917;-84
2022/04/12 12:25:10;;;;;;;;;;;17.30;99.90;;;;;;4992597;28;19918;-84
2022/04/12 12:27:36;;;;;;;;;;;17.50;99.90;;;;;;4991199;28;20394;-84
2022/04/12 12:30:06;;;;;;;;;;;17.80;99.90;;;;;;4992442;28;20356;-85
2022/04/12 12:32:36;;;;;;;;;;;18.10;99.90;;;;;;4991919;28;19913;-85
2022/04/12 12:35:04;;;;;;;;;;;18.10;99.90;;;;;;4992147;28;19910;-85
2022/04/12 12:37:30;;;;;;;;;;;18.10;99.90;;;;;;4990782;28;19910;-85
2022/04/12 12:39:55;;;;;;;;;;;18.30;99.90;;;;;;4992117;28;20392;-84
2022/04/12 12:42:22;;;;;;;;;;;18.50;99.90;;;;;;4992223;28;19910;-84
2022/04/12 12:44:48;;;;;;;;;;;18.20;99.90;;;;;;4992192;28;20004;-84
2022/04/12 12:47:13;;;;;;;;;;;18.20;99.90;;;;;;4991859;28;20369;-84
2022/04/12 12:49:40;;;;;;;;;;;18.40;99.90;;;;;;4992460;28;20382;-84
2022/04/12 12:52:07;;;;;;;;;;;18.40;99.90;;;;;;4991993;28;19953;-85
2022/04/12 12:54:33;;;;;;;;;;;18.50;99.90;;;;;;4991884;28;19910;-85
2022/04/12 12:57:01;;;;;;;;;;;18.90;99.90;;;;;;4991847;28;19933;-85
2022/04/12 12:59:26;;;;;;;;;;;19.10;99.90;;;;;;4991661;28;19910;-85
2022/04/12 13:01:53;;;;;;;;;;;19.00;99.90;;;;;;4991321;28;19910;-85
2022/04/12 13:04:19;;;;;;;;;;;18.90;99.90;;;;;;4991774;28;19925;-84
2022/04/12 13:06:46;;;;;;;;;;;18.70;99.90;;;;;;4991072;28;20550;-84
2022/04/12 13:09:12;;;;;;;;;;;18.60;99.90;;;;;;4991608;28;19945;-84
2022/04/12 13:11:39;;;;;;;;;;;18.70;99.90;;;;;;4991235;28;19960;-84
2022/04/12 13:14:04;;;;;;;;;;;18.80;99.90;;;;;;4991148;28;19910;-85
2022/04/12 13:16:30;;;;;;;;;;;19.50;99.90;;;;;;4991136;28;19909;-85
2022/04/12 13:19:03;;;;;;;;;;;19.90;99.90;;;;;;4991523;28;19993;-85
2022/04/12 13:21:28;;;;;;;;;;;20.20;99.90;;;;;;4991298;28;20379;-85
2022/04/12 13:23:54;;;;;;;;;;;20.20;99.90;;;;;;4991516;28;19910;-85
2022/04/12 13:26:19;;;;;;;;;;;20.10;99.90;;;;;;4991365;28;19918;-85
2022/04/12 13:28:45;;;;;;;;;;;20.30;99.90;;;;;;4991279;28;19910;-85
2022/04/12 13:31:10;;;;;;;;;;;20.50;99.90;;;;;;4991066;28;20223;-85
2022/04/12 13:33:36;;;;;;;;;;;20.40;99.90;;;;;;4991147;28;20008;-85
2022/04/12 13:36:01;;;;;;;;;;;20.50;99.90;;;;;;4989930;28;19956;-85
2022/04/12 13:38:27;;;;;;;;;;;20.30;99.90;;;;;;4991237;28;19910;-85
2022/04/12 13:40:53;;;;;;;;;;;20.10;99.90;;;;;;4989703;28;19909;-85
2022/04/12 13:43:18;;;;;;;;;;;20.50;99.90;;;;;;4991017;28;20267;-85
2022/04/12 13:45:44;;;;;;;;;;;20.80;99.90;;;;;;4989513;28;19918;-85
2022/04/12 13:48:10;;;;;;;;;;;20.90;99.90;;;;;;4991076;28;19976;-85
2022/04/12 13:50:35;;;;;;;;;;;21.20;99.90;;;;;;4989834;28;20373;-86
2022/04/12 13:53:01;;;;;;;;;;;21.60;99.90;;;;;;4991151;28;20482;-86
2022/04/12 13:55:26;;;;;;;;;;;21.80;99.90;;;;;;4990877;28;19932;-85
2022/04/12 13:57:52;;;;;;;;;;;21.40;99.90;;;;;;4990818;28;19910;-85
2022/04/12 14:00:23;;;;;;;;;;;21.10;99.90;;;;;;4990313;28;20169;-85
2022/04/12 14:02:49;;;;;;;;;;;20.90;99.90;;;;;;4990929;28;20382;-85
2022/04/12 14:05:15;;;;;;;;;;;20.80;99.90;;;;;;4990810;28;19914;-86
2022/04/12 14:07:42;;;;;;;;;;;21.20;99.90;;;;;;4989573;28;19917;-85
2022/04/12 14:10:08;;;;;;;;;;;21.90;99.90;;;;;;4991374;28;20387;-86
2022/04/12 14:12:34;;;;;;;;;;;22.20;99.90;;;;;;4990725;28;19937;-85
2022/04/12 14:14:59;;;;;;;;;;;22.30;99.90;;;;;;4989503;28;20370;-86